Greensboro, North Carolina
Current Conditions -  °F | °C
As of 4:54 AM on Saturday 20 Dec 2014 (Local Time) from KGSO Reporting Station
Overcast Overcast  
Wind Chill: 32°   Ceiling: 11000
Heat Index: 37°   Visibility: 10mi
Dew Point: 25°   Wind: 7mph
Humidity: 62%   Direction: 30°NNE
Pressure: 30.2"   Gusts: NA
Location:  36.07°N, 79.79°W
Report Text: KGSO 200954Z 03006KT 10SM OVC110 03/M04 A3020 RMK AO2 SLP230 T00281039
Loading
Personal Weather Stations






























Interactive Weather Map New forecast layout! Learn more

10-Day Weather Forecast

Advertisements
Track Severe Weather on mobile